sensor_id;sensor_type;location;lat;lon;timestamp;pressure;altitude;pressure_sealevel;temperature;humidity
6393;BME280;3229;42.674;23.282;2022-12-07T00:01:06;94623.66;;;11.10;74.74
6393;BME280;3229;42.674;23.282;2022-12-07T00:03:33;94616.91;;;11.09;74.58
6393;BME280;3229;42.674;23.282;2022-12-07T00:06:01;94602.78;;;11.05;74.56
6393;BME280;3229;42.674;23.282;2022-12-07T00:08:28;94614.34;;;11.09;74.44
6393;BME280;3229;42.674;23.282;2022-12-07T00:11:00;94585.88;;;10.94;74.58
6393;BME280;3229;42.674;23.282;2022-12-07T00:13:27;94616.09;;;11.09;74.59
6393;BME280;3229;42.674;23.282;2022-12-07T00:15:54;94612.59;;;11.10;74.37
6393;BME280;3229;42.674;23.282;2022-12-07T00:18:21;94608.41;;;11.09;74.72
6393;BME280;3229;42.674;23.282;2022-12-07T00:20:47;94606.66;;;11.09;74.52
6393;BME280;3229;42.674;23.282;2022-12-07T00:23:14;94610.16;;;11.08;74.64
6393;BME280;3229;42.674;23.282;2022-12-07T00:25:41;94545.38;;;10.62;74.43
6393;BME280;3229;42.674;23.282;2022-12-07T00:28:09;94613.69;;;11.07;74.48
6393;BME280;3229;42.674;23.282;2022-12-07T00:30:36;94616.09;;;11.09;74.34
6393;BME280;3229;42.674;23.282;2022-12-07T00:33:03;94609.38;;;11.08;74.66
6393;BME280;3229;42.674;23.282;2022-12-07T00:35:29;94608.41;;;11.09;74.49
6393;BME280;3229;42.674;23.282;2022-12-07T00:37:56;94608.56;;;11.07;74.60
6393;BME280;3229;42.674;23.282;2022-12-07T00:40:23;94618.66;;;11.09;74.37
6393;BME280;3229;42.674;23.282;2022-12-07T00:42:50;94616.91;;;11.09;74.48
6393;BME280;3229;42.674;23.282;2022-12-07T00:45:18;94616.91;;;11.09;74.50
6393;BME280;3229;42.674;23.282;2022-12-07T00:47:45;94610.97;;;11.09;74.66
6393;BME280;3229;42.674;23.282;2022-12-07T00:50:11;94605.84;;;11.09;74.48
6393;BME280;3229;42.674;23.282;2022-12-07T00:52:38;94615.28;;;11.08;74.49
6393;BME280;3229;42.674;23.282;2022-12-07T00:55:05;94601.69;;;11.08;74.32
6393;BME280;3229;42.674;23.282;2022-12-07T00:57:32;94607.63;;;11.08;74.52
6393;BME280;3229;42.674;23.282;2022-12-07T00:59:59;94609.38;;;11.08;74.58
6393;BME280;3229;42.674;23.282;2022-12-07T01:02:27;94607.78;;;11.07;74.52
6393;BME280;3229;42.674;23.282;2022-12-07T01:04:54;94602.13;;;11.03;74.67
6393;BME280;3229;42.674;23.282;2022-12-07T01:07:21;94606.00;;;11.07;74.42
6393;BME280;3229;42.674;23.282;2022-12-07T01:09:48;94602.66;;;11.07;74.52
6393;BME280;3229;42.674;23.282;2022-12-07T01:12:14;94604.41;;;11.06;74.42
6393;BME280;3229;42.674;23.282;2022-12-07T01:14:41;94592.03;;;11.01;74.67
6393;BME280;3229;42.674;23.282;2022-12-07T01:17:08;94601.84;;;11.06;74.52
6393;BME280;3229;42.674;23.282;2022-12-07T01:19:36;94589.97;;;11.05;74.62
6393;BME280;3229;42.674;23.282;2022-12-07T01:22:03;94589.97;;;11.05;74.76
6393;BME280;3229;42.674;23.282;2022-12-07T01:24:30;94591.63;;;11.06;74.52
6393;BME280;3229;42.674;23.282;2022-12-07T01:26:56;94586.63;;;11.04;74.62
6393;BME280;3229;42.674;23.282;2022-12-07T01:29:23;94579.91;;;11.03;74.64
6393;BME280;3229;42.674;23.282;2022-12-07T01:31:50;94583.41;;;11.02;74.66
6393;BME280;3229;42.674;23.282;2022-12-07T01:34:17;94581.13;;;10.99;74.67
6393;BME280;3229;42.674;23.282;2022-12-07T01:36:45;94583.84;;;10.98;74.63
6393;BME280;3229;42.674;23.282;2022-12-07T01:39:12;94578.19;;;10.94;74.67
6393;BME280;3229;42.674;23.282;2022-12-07T01:41:40;94578.25;;;10.85;74.73
6393;BME280;3229;42.674;23.282;2022-12-07T01:44:21;94579.28;;;10.92;74.87
6393;BME280;3229;42.674;23.282;2022-12-07T01:46:49;94584.25;;;10.93;74.74
6393;BME280;3229;42.674;23.282;2022-12-07T01:49:23;94574.06;;;10.84;74.84
6393;BME280;3229;42.674;23.282;2022-12-07T01:51:58;94578.34;;;10.93;74.97
6393;BME280;3229;42.674;23.282;2022-12-07T01:54:27;94567.34;;;10.83;74.56
6393;BME280;3229;42.674;23.282;2022-12-07T01:56:54;94552.84;;;10.73;74.84
6393;BME280;3229;42.674;23.282;2022-12-07T01:59:24;94560.03;;;10.88;74.68
6393;BME280;3229;42.674;23.282;2022-12-07T02:01:52;94556.25;;;10.92;74.68
6393;BME280;3229;42.674;23.282;2022-12-07T02:04:21;94564.72;;;10.92;74.70
6393;BME280;3229;42.674;23.282;2022-12-07T02:06:48;94559.59;;;10.92;74.84
6393;BME280;3229;42.674;23.282;2022-12-07T02:09:17;94562.16;;;10.92;74.85
6393;BME280;3229;42.674;23.282;2022-12-07T02:11:44;94568.13;;;10.93;74.88
6393;BME280;3229;42.674;23.282;2022-12-07T02:14:11;94561.38;;;10.92;74.64
6393;BME280;3229;42.674;23.282;2022-12-07T02:16:46;94542.34;;;10.76;75.12
6393;BME280;3229;42.674;23.282;2022-12-07T02:22:22;94539.63;;;10.78;74.80
6393;BME280;3229;42.674;23.282;2022-12-07T02:25:01;94563.13;;;10.91;74.71
6393;BME280;3229;42.674;23.282;2022-12-07T02:27:39;94560.56;;;10.91;74.70
6393;BME280;3229;42.674;23.282;2022-12-07T02:30:12;94548.56;;;10.92;74.75
6393;BME280;3229;42.674;23.282;2022-12-07T02:32:49;94553.69;;;10.92;74.83
6393;BME280;3229;42.674;23.282;2022-12-07T02:35:20;94539.34;;;10.81;74.68
6393;BME280;3229;42.674;23.282;2022-12-07T02:37:55;94557.88;;;10.93;74.80
6393;BME280;3229;42.674;23.282;2022-12-07T02:40:28;94557.19;;;10.91;74.86
6393;BME280;3229;42.674;23.282;2022-12-07T02:43:01;94549.97;;;10.86;74.82
6393;BME280;3229;42.674;23.282;2022-12-07T02:45:31;94556.03;;;10.85;74.65
6393;BME280;3229;42.674;23.282;2022-12-07T02:48:01;94552.94;;;10.82;74.97
6393;BME280;3229;42.674;23.282;2022-12-07T02:50:28;94559.53;;;10.84;74.86
6393;BME280;3229;42.674;23.282;2022-12-07T02:52:55;94544.47;;;10.81;75.01
6393;BME280;3229;42.674;23.282;2022-12-07T02:55:25;94539.50;;;10.79;75.00
6393;BME280;3229;42.674;23.282;2022-12-07T02:58:20;94542.19;;;10.78;74.91
6393;BME280;3229;42.674;23.282;2022-12-07T03:01:02;94525.94;;;10.69;74.79
6393;BME280;3229;42.674;23.282;2022-12-07T03:03:32;94534.16;;;10.73;74.88
6393;BME280;3229;42.674;23.282;2022-12-07T03:06:09;94535.09;;;10.72;75.12
6393;BME280;3229;42.674;23.282;2022-12-07T03:08:47;94531.75;;;10.71;74.87
6393;BME280;3229;42.674;23.282;2022-12-07T03:11:23;94527.69;;;10.69;74.88
6393;BME280;3229;42.674;23.282;2022-12-07T03:13:59;94522.75;;;10.67;74.96
6393;BME280;3229;42.674;23.282;2022-12-07T03:16:32;94524.63;;;10.65;75.02
6393;BME280;3229;42.674;23.282;2022-12-07T03:19:03;94529.22;;;10.62;74.87
6393;BME280;3229;42.674;23.282;2022-12-07T03:21:34;94529.22;;;10.62;74.90
6393;BME280;3229;42.674;23.282;2022-12-07T03:24:05;94537.84;;;10.61;74.83
6393;BME280;3229;42.674;23.282;2022-12-07T03:26:37;94532.06;;;10.59;75.17
6393;BME280;3229;42.674;23.282;2022-12-07T03:29:08;94539.75;;;10.59;75.09
6393;BME280;3229;42.674;23.282;2022-12-07T03:31:41;94536.38;;;10.58;75.05
6393;BME280;3229;42.674;23.282;2022-12-07T03:34:14;94501.09;;;10.34;74.96
6393;BME280;3229;42.674;23.282;2022-12-07T03:36:47;94540.00;;;10.55;75.18
6393;BME280;3229;42.674;23.282;2022-12-07T03:39:21;94535.69;;;10.56;75.02
6393;BME280;3229;42.674;23.282;2022-12-07T03:41:50;94529.78;;;10.55;75.10
6393;BME280;3229;42.674;23.282;2022-12-07T03:44:18;94445.75;;;10.05;74.96
6393;BME280;3229;42.674;23.282;2022-12-07T03:46:53;94519.59;;;10.46;75.01
6393;BME280;3229;42.674;23.282;2022-12-07T03:49:26;94531.53;;;10.55;75.02
6393;BME280;3229;42.674;23.282;2022-12-07T03:51:57;94530.59;;;10.56;75.02
6393;BME280;3229;42.674;23.282;2022-12-07T03:54:30;94510.59;;;10.42;75.02
6393;BME280;3229;42.674;23.282;2022-12-07T03:57:01;94526.44;;;10.55;75.15
6393;BME280;3229;42.674;23.282;2022-12-07T03:59:29;94522.28;;;10.54;75.17
6393;BME280;3229;42.674;23.282;2022-12-07T04:02:04;94518.06;;;10.53;75.03
6393;BME280;3229;42.674;23.282;2022-12-07T04:04:31;94510.28;;;10.54;75.19
6393;BME280;3229;42.674;23.282;2022-12-07T04:06:59;94522.28;;;10.54;74.96
6393;BME280;3229;42.674;23.282;2022-12-07T04:09:26;94517.94;;;10.54;74.93
6393;BME280;3229;42.674;23.282;2022-12-07T04:11:53;94520.78;;;10.51;75.12
6393;BME280;3229;42.674;23.282;2022-12-07T04:14:20;94518.06;;;10.53;75.10
6393;BME280;3229;42.674;23.282;2022-12-07T04:16:47;94520.63;;;10.53;74.94
6393;BME280;3229;42.674;23.282;2022-12-07T04:19:17;94524.03;;;10.53;75.19
6393;BME280;3229;42.674;23.282;2022-12-07T04:21:44;94524.94;;;10.52;75.03
6393;BME280;3229;42.674;23.282;2022-12-07T04:24:11;94521.47;;;10.53;75.11
6393;BME280;3229;42.674;23.282;2022-12-07T04:26:39;94528.47;;;10.51;75.00
6393;BME280;3229;42.674;23.282;2022-12-07T04:29:06;94523.34;;;10.51;74.98
6393;BME280;3229;42.674;23.282;2022-12-07T04:31:32;94529.41;;;10.50;75.12
6393;BME280;3229;42.674;23.282;2022-12-07T04:33:59;94526.97;;;10.49;75.16
6393;BME280;3229;42.674;23.282;2022-12-07T04:36:28;94521.06;;;10.48;75.10
6393;BME280;3229;42.674;23.282;2022-12-07T04:38:55;94519.47;;;10.47;75.17
6393;BME280;3229;42.674;23.282;2022-12-07T04:41:22;94490.06;;;10.24;74.82
6393;BME280;3229;42.674;23.282;2022-12-07T04:43:53;94517.06;;;10.36;75.00
6393;BME280;3229;42.674;23.282;2022-12-07T04:46:20;94530.91;;;10.43;75.37
6393;BME280;3229;42.674;23.282;2022-12-07T04:48:47;94533.72;;;10.40;74.96
6393;BME280;3229;42.674;23.282;2022-12-07T04:51:15;94527.16;;;10.38;75.24
6393;BME280;3229;42.674;23.282;2022-12-07T04:53:46;94532.94;;;10.40;75.35
6393;BME280;3229;42.674;23.282;2022-12-07T04:56:13;94512.47;;;10.49;97.55
6393;BME280;3229;42.674;23.282;2022-12-07T04:58:41;94527.72;;;11.32;100.00
6393;BME280;3229;42.674;23.282;2022-12-07T05:01:08;94524.63;;;12.08;100.00
6393;BME280;3229;42.674;23.282;2022-12-07T05:03:35;94527.22;;;12.76;100.00
6393;BME280;3229;42.674;23.282;2022-12-07T05:06:03;94530.13;;;13.32;100.00
6393;BME280;3229;42.674;23.282;2022-12-07T05:08:30;94533.06;;;13.62;100.00
6393;BME280;3229;42.674;23.282;2022-12-07T05:10:59;94538.34;;;13.68;100.00
6393;BME280;3229;42.674;23.282;2022-12-07T05:13:26;94532.88;;;13.63;100.00
6393;BME280;3229;42.674;23.282;2022-12-07T05:15:53;94532.25;;;13.53;100.00
6393;BME280;3229;42.674;23.282;2022-12-07T05:18:20;94530.13;;;13.40;99.94
6393;BME280;3229;42.674;23.282;2022-12-07T05:20:47;94525.16;;;13.22;97.15
6393;BME280;3229;42.674;23.282;2022-12-07T05:23:14;94531.19;;;13.13;95.03
6393;BME280;3229;42.674;23.282;2022-12-07T05:25:40;94533.41;;;13.00;92.63
6393;BME280;3229;42.674;23.282;2022-12-07T05:28:09;94528.06;;;12.85;90.64
6393;BME280;3229;42.674;23.282;2022-12-07T05:30:36;94530.25;;;12.72;89.22
6393;BME280;3229;42.674;23.282;2022-12-07T05:33:03;94527.94;;;12.61;88.34
6393;BME280;3229;42.674;23.282;2022-12-07T05:35:30;94538.50;;;12.49;87.38
6393;BME280;3229;42.674;23.282;2022-12-07T05:37:57;94523.53;;;12.37;86.79
6393;BME280;3229;42.674;23.282;2022-12-07T05:40:24;94526.84;;;12.29;86.13
6393;BME280;3229;42.674;23.282;2022-12-07T05:42:50;94518.47;;;12.19;85.61
6393;BME280;3229;42.674;23.282;2022-12-07T05:45:19;94515.19;;;12.09;85.21
6393;BME280;3229;42.674;23.282;2022-12-07T05:47:45;94510.84;;;12.01;84.87
6393;BME280;3229;42.674;23.282;2022-12-07T05:50:12;94515.09;;;11.92;84.87
6393;BME280;3229;42.674;23.282;2022-12-07T05:52:39;94511.53;;;11.85;84.67
6393;BME280;3229;42.674;23.282;2022-12-07T05:55:07;94512.22;;;11.77;84.44
6393;BME280;3229;42.674;23.282;2022-12-07T05:57:33;94517.97;;;11.71;84.47
6393;BME280;3229;42.674;23.282;2022-12-07T06:00:00;94515.19;;;11.65;84.32
6393;BME280;3229;42.674;23.282;2022-12-07T06:02:28;94513.34;;;11.57;84.27
6393;BME280;3229;42.674;23.282;2022-12-07T06:04:54;94515.44;;;11.53;84.07
6393;BME280;3229;42.674;23.282;2022-12-07T06:07:21;94441.72;;;11.03;83.87
6393;BME280;3229;42.674;23.282;2022-12-07T06:09:48;94520.47;;;11.45;84.09
6393;BME280;3229;42.674;23.282;2022-12-07T06:12:15;94522.53;;;11.42;83.98
6393;BME280;3229;42.674;23.282;2022-12-07T06:14:59;94520.25;;;11.39;83.84
6393;BME280;3229;42.674;23.282;2022-12-07T06:17:27;94529.03;;;11.36;83.77
6393;BME280;3229;42.674;23.282;2022-12-07T06:19:54;94523.25;;;11.34;83.83
6393;BME280;3229;42.674;23.282;2022-12-07T06:22:21;94524.38;;;11.32;83.97
6393;BME280;3229;42.674;23.282;2022-12-07T06:24:47;94524.50;;;11.30;83.86
6393;BME280;3229;42.674;23.282;2022-12-07T06:27:14;94534.44;;;11.33;84.07
6393;BME280;3229;42.674;23.282;2022-12-07T06:29:41;94538.59;;;11.34;84.20
6393;BME280;3229;42.674;23.282;2022-12-07T06:32:08;94529.97;;;11.35;84.11
6393;BME280;3229;42.674;23.282;2022-12-07T06:34:36;94531.59;;;11.36;nan
6393;BME280;3229;42.674;23.282;2022-12-07T06:37:03;94538.31;;;11.37;83.71
6393;BME280;3229;42.674;23.282;2022-12-07T06:39:30;94535.59;;;11.39;83.99
6393;BME280;3229;42.674;23.282;2022-12-07T06:41:57;94534.81;;;11.38;83.76
6393;BME280;3229;42.674;23.282;2022-12-07T06:44:24;94546.53;;;11.41;83.86
6393;BME280;3229;42.674;23.282;2022-12-07T06:46:52;94542.03;;;11.43;83.46
6393;BME280;3229;42.674;23.282;2022-12-07T06:49:18;94544.09;;;11.39;83.61
6393;BME280;3229;42.674;23.282;2022-12-07T06:51:47;94546.09;;;11.45;83.58
6393;BME280;3229;42.674;23.282;2022-12-07T06:54:15;94539.22;;;11.46;83.42
6393;BME280;3229;42.674;23.282;2022-12-07T06:56:42;94551.06;;;11.47;83.29
6393;BME280;3229;42.674;23.282;2022-12-07T06:59:09;94547.53;;;11.48;82.98
6393;BME280;3229;42.674;23.282;2022-12-07T07:01:36;94543.88;;;11.50;82.89
6393;BME280;3229;42.674;23.282;2022-12-07T07:04:03;94548.84;;;11.52;82.63
6393;BME280;3229;42.674;23.282;2022-12-07T07:06:30;94543.22;;;11.48;82.68
6393;BME280;3229;42.674;23.282;2022-12-07T07:08:58;94546.97;;;11.54;82.53
6393;BME280;3229;42.674;23.282;2022-12-07T07:11:25;94547.09;;;11.52;82.50
6393;BME280;3229;42.674;23.282;2022-12-07T07:13:51;94541.84;;;11.54;82.14
6393;BME280;3229;42.674;23.282;2022-12-07T07:16:20;94545.03;;;11.56;82.10
6393;BME280;3229;42.674;23.282;2022-12-07T07:18:47;94547.47;;;11.58;81.90
6393;BME280;3229;42.674;23.282;2022-12-07T07:21:13;94545.56;;;11.60;81.79
6393;BME280;3229;42.674;23.282;2022-12-07T07:23:40;94543.66;;;11.62;81.63
6393;BME280;3229;42.674;23.282;2022-12-07T07:26:08;94540.44;;;11.60;81.50
6393;BME280;3229;42.674;23.282;2022-12-07T07:28:35;94552.81;;;11.64;81.01
6393;BME280;3229;42.674;23.282;2022-12-07T07:31:02;94560.19;;;11.67;81.14
6393;BME280;3229;42.674;23.282;2022-12-07T07:33:28;94560.72;;;11.71;80.80
6393;BME280;3229;42.674;23.282;2022-12-07T07:35:55;94552.72;;;11.74;80.60
6393;BME280;3229;42.674;23.282;2022-12-07T07:38:22;94552.25;;;11.78;80.58
6393;BME280;3229;42.674;23.282;2022-12-07T07:40:49;94555.25;;;11.84;80.35
6393;BME280;3229;42.674;23.282;2022-12-07T07:43:17;94550.31;;;11.90;80.03
6393;BME280;3229;42.674;23.282;2022-12-07T07:45:44;94554.53;;;11.99;79.92
6393;BME280;3229;42.674;23.282;2022-12-07T07:48:11;94559.88;;;12.06;79.47
6393;BME280;3229;42.674;23.282;2022-12-07T07:50:38;94555.75;;;12.13;79.21
6393;BME280;3229;42.674;23.282;2022-12-07T07:53:05;94563.66;;;12.20;79.04
6393;BME280;3229;42.674;23.282;2022-12-07T07:55:31;94561.44;;;12.25;78.98
6393;BME280;3229;42.674;23.282;2022-12-07T07:57:58;94548.31;;;12.28;78.76
6393;BME280;3229;42.674;23.282;2022-12-07T08:00:26;94555.09;;;12.37;78.61
6393;BME280;3229;42.674;23.282;2022-12-07T08:02:53;94546.16;;;12.41;78.22
6393;BME280;3229;42.674;23.282;2022-12-07T08:05:20;94553.38;;;12.46;78.20
6393;BME280;3229;42.674;23.282;2022-12-07T08:07:47;94550.19;;;12.52;78.05
6393;BME280;3229;42.674;23.282;2022-12-07T08:10:14;94544.00;;;12.63;77.74
6393;BME280;3229;42.674;23.282;2022-12-07T08:12:42;94546.75;;;12.69;77.54
6393;BME280;3229;42.674;23.282;2022-12-07T08:15:25;94541.19;;;12.74;77.25
6393;BME280;3229;42.674;23.282;2022-12-07T08:17:53;94546.66;;;12.79;77.22
6393;BME280;3229;42.674;23.282;2022-12-07T08:20:20;94543.91;;;12.80;77.13
6393;BME280;3229;42.674;23.282;2022-12-07T08:22:46;94547.28;;;12.81;76.98
6393;BME280;3229;42.674;23.282;2022-12-07T08:25:13;94542.94;;;12.81;77.01
6393;BME280;3229;42.674;23.282;2022-12-07T08:27:40;94474.97;;;12.35;77.03
6393;BME280;3229;42.674;23.282;2022-12-07T08:30:08;94538.28;;;12.77;76.91
6393;BME280;3229;42.674;23.282;2022-12-07T08:32:35;94554.47;;;12.77;76.91
6393;BME280;3229;42.674;23.282;2022-12-07T08:35:03;94553.84;;;12.75;76.79
6393;BME280;3229;42.674;23.282;2022-12-07T08:37:31;94551.75;;;12.71;76.66
6393;BME280;3229;42.674;23.282;2022-12-07T08:39:58;94553.34;;;12.72;76.76
6393;BME280;3229;42.674;23.282;2022-12-07T08:42:24;94549.97;;;12.71;76.63
6393;BME280;3229;42.674;23.282;2022-12-07T08:44:55;94539.72;;;12.71;76.33
6393;BME280;3229;42.674;23.282;2022-12-07T08:47:22;94532.00;;;12.71;76.35
6393;BME280;3229;42.674;23.282;2022-12-07T08:49:51;94536.19;;;12.72;76.05
6393;BME280;3229;42.674;23.282;2022-12-07T08:52:21;94535.22;;;12.73;76.18
6393;BME280;3229;42.674;23.282;2022-12-07T08:54:48;94531.72;;;12.74;75.97
6393;BME280;3229;42.674;23.282;2022-12-07T08:57:15;94532.34;;;12.76;75.92
6393;BME280;3229;42.674;23.282;2022-12-07T08:59:42;94532.34;;;12.76;75.73
6393;BME280;3229;42.674;23.282;2022-12-07T09:02:09;94520.81;;;12.80;75.75
6393;BME280;3229;42.674;23.282;2022-12-07T09:04:36;94517.94;;;12.84;75.55
6393;BME280;3229;42.674;23.282;2022-12-07T09:07:03;94520.34;;;12.85;75.47
6393;BME280;3229;42.674;23.282;2022-12-07T09:09:32;94514.41;;;12.85;75.19
6393;BME280;3229;42.674;23.282;2022-12-07T09:11:58;94513.66;;;12.92;75.30
6393;BME280;3229;42.674;23.282;2022-12-07T09:14:25;94508.34;;;12.94;75.04
6393;BME280;3229;42.674;23.282;2022-12-07T09:16:52;94512.88;;;13.00;75.02
6393;BME280;3229;42.674;23.282;2022-12-07T09:19:19;94508.69;;;12.99;74.95
6393;BME280;3229;42.674;23.282;2022-12-07T09:21:46;94507.25;;;13.04;74.95
6393;BME280;3229;42.674;23.282;2022-12-07T09:24:13;94516.91;;;13.11;74.73
6393;BME280;3229;42.674;23.282;2022-12-07T09:26:41;94510.66;;;13.13;74.78
6393;BME280;3229;42.674;23.282;2022-12-07T09:29:08;94499.47;;;13.22;74.23
6393;BME280;3229;42.674;23.282;2022-12-07T09:31:36;94504.91;;;13.27;74.20
6393;BME280;3229;42.674;23.282;2022-12-07T09:34:03;94500.09;;;13.33;74.02
6393;BME280;3229;42.674;23.282;2022-12-07T09:36:31;94498.66;;;13.38;73.85
6393;BME280;3229;42.674;23.282;2022-12-07T09:38:58;94500.13;;;13.41;73.72
6393;BME280;3229;42.674;23.282;2022-12-07T09:41:27;94467.38;;;13.35;73.66
6393;BME280;3229;42.674;23.282;2022-12-07T09:44:02;94485.69;;;13.48;73.51
6393;BME280;3229;42.674;23.282;2022-12-07T09:46:34;94490.47;;;13.51;73.43
6393;BME280;3229;42.674;23.282;2022-12-07T09:49:02;94486.97;;;13.52;73.55
6393;BME280;3229;42.674;23.282;2022-12-07T09:51:29;94481.66;;;13.53;73.21
6393;BME280;3229;42.674;23.282;2022-12-07T09:53:58;94481.00;;;13.60;73.17
6393;BME280;3229;42.674;23.282;2022-12-07T09:56:25;94474.56;;;13.64;73.45
6393;BME280;3229;42.674;23.282;2022-12-07T09:59:00;94482.16;;;13.73;72.99
6393;BME280;3229;42.674;23.282;2022-12-07T10:01:29;94477.47;;;13.77;72.87
6393;BME280;3229;42.674;23.282;2022-12-07T10:04:02;94478.25;;;13.86;72.73
6393;BME280;3229;42.674;23.282;2022-12-07T10:06:32;94469.91;;;13.92;72.44
6393;BME280;3229;42.674;23.282;2022-12-07T10:08:59;94470.38;;;14.03;72.31
6393;BME280;3229;42.674;23.282;2022-12-07T10:11:26;94473.06;;;14.10;71.92
6393;BME280;3229;42.674;23.282;2022-12-07T10:13:53;94464.53;;;14.18;71.85
6393;BME280;3229;42.674;23.282;2022-12-07T10:16:35;94457.41;;;14.28;71.55
6393;BME280;3229;42.674;23.282;2022-12-07T10:19:22;94445.00;;;14.40;71.35
6393;BME280;3229;42.674;23.282;2022-12-07T10:22:09;94449.66;;;14.52;71.03
6393;BME280;3229;42.674;23.282;2022-12-07T10:24:37;94438.69;;;14.59;70.69
6393;BME280;3229;42.674;23.282;2022-12-07T10:27:17;94434.44;;;14.74;70.56
6393;BME280;3229;42.674;23.282;2022-12-07T10:29:48;94431.63;;;14.84;70.48
6393;BME280;3229;42.674;23.282;2022-12-07T10:32:29;94426.44;;;14.92;69.89
6393;BME280;3229;42.674;23.282;2022-12-07T10:35:19;94424.78;;;14.99;70.14
6393;BME280;3229;42.674;23.282;2022-12-07T10:37:46;94422.66;;;15.02;70.41
6393;BME280;3229;42.674;23.282;2022-12-07T10:40:25;94417.16;;;15.05;70.18
6393;BME280;3229;42.674;23.282;2022-12-07T10:43:04;94385.28;;;14.84;69.81
6393;BME280;3229;42.674;23.282;2022-12-07T10:45:32;94420.66;;;15.13;69.82
6393;BME280;3229;42.674;23.282;2022-12-07T10:48:07;94420.94;;;15.18;69.77
6393;BME280;3229;42.674;23.282;2022-12-07T10:50:52;94411.44;;;15.18;69.60
6393;BME280;3229;42.674;23.282;2022-12-07T10:53:35;94403.72;;;15.18;69.54
6393;BME280;3229;42.674;23.282;2022-12-07T10:56:23;94401.78;;;15.20;69.42
6393;BME280;3229;42.674;23.282;2022-12-07T10:59:04;94396.44;;;15.22;69.50
6393;BME280;3229;42.674;23.282;2022-12-07T11:01:41;94394.78;;;15.29;69.38
6393;BME280;3229;42.674;23.282;2022-12-07T11:04:21;94386.63;;;15.40;68.99
6393;BME280;3229;42.674;23.282;2022-12-07T11:06:54;94387.81;;;15.52;68.65
6393;BME280;3229;42.674;23.282;2022-12-07T11:09:52;94388.53;;;15.61;68.26
6393;BME280;3229;42.674;23.282;2022-12-07T11:12:31;94386.00;;;15.76;67.96
6393;BME280;3229;42.674;23.282;2022-12-07T11:15:03;94383.16;;;15.86;67.67
6393;BME280;3229;42.674;23.282;2022-12-07T11:17:36;94383.78;;;15.88;67.62
6393;BME280;3229;42.674;23.282;2022-12-07T11:20:24;94369.63;;;15.84;67.67
6393;BME280;3229;42.674;23.282;2022-12-07T11:23:00;94379.16;;;15.83;67.67
6393;BME280;3229;42.674;23.282;2022-12-07T11:25:32;94374.09;;;15.90;67.55
6393;BME280;3229;42.674;23.282;2022-12-07T11:28:15;94356.06;;;15.90;67.21
6393;BME280;3229;42.674;23.282;2022-12-07T11:30:52;94359.41;;;16.05;66.95
6393;BME280;3229;42.674;23.282;2022-12-07T11:33:29;94345.81;;;16.11;66.78
6393;BME280;3229;42.674;23.282;2022-12-07T11:36:04;94334.84;;;16.09;66.66
6393;BME280;3229;42.674;23.282;2022-12-07T11:38:42;94335.81;;;16.23;66.38
6393;BME280;3229;42.674;23.282;2022-12-07T11:41:10;94324.63;;;16.16;66.42
6393;BME280;3229;42.674;23.282;2022-12-07T11:43:51;94350.38;;;16.30;66.19
6393;BME280;3229;42.674;23.282;2022-12-07T11:46:20;94347.44;;;16.34;66.11
6393;BME280;3229;42.674;23.282;2022-12-07T11:48:55;94347.91;;;16.37;65.95
6393;BME280;3229;42.674;23.282;2022-12-07T11:51:25;94345.75;;;16.41;65.78
6393;BME280;3229;42.674;23.282;2022-12-07T11:53:55;94333.44;;;16.43;65.63
6393;BME280;3229;42.674;23.282;2022-12-07T11:56:25;94334.88;;;16.45;65.07
6393;BME280;3229;42.674;23.282;2022-12-07T11:58:55;94333.53;;;16.49;65.41
6393;BME280;3229;42.674;23.282;2022-12-07T12:01:31;94336.13;;;16.49;65.17
6393;BME280;3229;42.674;23.282;2022-12-07T12:04:07;94325.97;;;16.48;65.07
6393;BME280;3229;42.674;23.282;2022-12-07T12:06:44;94314.16;;;16.39;65.09
6393;BME280;3229;42.674;23.282;2022-12-07T12:09:14;94289.81;;;16.26;65.26
6393;BME280;3229;42.674;23.282;2022-12-07T12:11:56;94312.38;;;16.39;65.06
6393;BME280;3229;42.674;23.282;2022-12-07T12:14:41;94302.78;;;16.33;65.09
6393;BME280;3229;42.674;23.282;2022-12-07T12:17:31;94311.56;;;16.39;65.02
6393;BME280;3229;42.674;23.282;2022-12-07T12:20:13;94309.97;;;16.38;64.90
6393;BME280;3229;42.674;23.282;2022-12-07T12:22:46;94285.19;;;16.22;64.92
6393;BME280;3229;42.674;23.282;2022-12-07T12:25:21;94308.38;;;16.37;64.84
6393;BME280;3229;42.674;23.282;2022-12-07T12:27:50;94302.41;;;16.36;64.81
6393;BME280;3229;42.674;23.282;2022-12-07T12:30:31;94301.19;;;16.32;64.83
6393;BME280;3229;42.674;23.282;2022-12-07T12:33:04;94296.94;;;16.24;64.90
6393;BME280;3229;42.674;23.282;2022-12-07T12:35:34;94278.00;;;16.17;65.06
6393;BME280;3229;42.674;23.282;2022-12-07T12:38:30;94281.38;;;16.18;64.86
6393;BME280;3229;42.674;23.282;2022-12-07T12:41:00;94281.22;;;16.19;64.89
6393;BME280;3229;42.674;23.282;2022-12-07T12:43:45;94275.50;;;16.24;64.75
6393;BME280;3229;42.674;23.282;2022-12-07T12:46:48;94273.59;;;16.33;64.50
6393;BME280;3229;42.674;23.282;2022-12-07T12:49:42;94283.00;;;16.40;64.29
6393;BME280;3229;42.674;23.282;2022-12-07T12:55:15;94292.25;;;16.49;64.14
6393;BME280;3229;42.674;23.282;2022-12-07T12:57:47;94283.75;;;16.55;64.05
6393;BME280;3229;42.674;23.282;2022-12-07T13:00:18;94283.38;;;16.59;63.90
6393;BME280;3229;42.674;23.282;2022-12-07T13:02:50;94280.41;;;16.62;63.80
6393;BME280;3229;42.674;23.282;2022-12-07T13:05:19;94284.22;;;16.66;63.76
6393;BME280;3229;42.674;23.282;2022-12-07T13:07:57;94292.59;;;16.68;63.51
6393;BME280;3229;42.674;23.282;2022-12-07T13:10:41;94301.16;;;16.68;63.61
6393;BME280;3229;42.674;23.282;2022-12-07T13:13:34;94294.56;;;16.66;63.69
6393;BME280;3229;42.674;23.282;2022-12-07T13:22:43;94280.28;;;16.48;63.85
6393;BME280;3229;42.674;23.282;2022-12-07T13:25:12;94278.25;;;16.44;64.11
6393;BME280;3229;42.674;23.282;2022-12-07T13:27:52;94275.09;;;16.42;64.02
6393;BME280;3229;42.674;23.282;2022-12-07T13:30:22;94285.75;;;16.39;64.07
6393;BME280;3229;42.674;23.282;2022-12-07T13:32:52;94262.75;;;16.22;64.29
6393;BME280;3229;42.674;23.282;2022-12-07T13:35:33;94278.50;;;16.27;64.03
6393;BME280;3229;42.674;23.282;2022-12-07T13:38:05;94283.16;;;16.17;64.36
6393;BME280;3229;42.674;23.282;2022-12-07T13:40:32;94273.13;;;16.08;64.44